sensor_id;sensor_type;location;lat;lon;timestamp;pressure;altitude;pressure_sealevel;temperature;humidity
29169;BME280;16219;42.864;23.360;2023-04-24T00:00:54;95612.25;;;8.88;100.00
29169;BME280;16219;42.864;23.360;2023-04-24T00:03:22;95617.94;;;8.81;100.00
29169;BME280;16219;42.864;23.360;2023-04-24T00:05:49;95617.91;;;8.72;100.00
29169;BME280;16219;42.864;23.360;2023-04-24T00:08:16;95614.16;;;8.65;100.00
29169;BME280;16219;42.864;23.360;2023-04-24T00:10:43;95618.69;;;8.73;100.00
29169;BME280;16219;42.864;23.360;2023-04-24T00:13:12;95613.56;;;8.68;100.00
29169;BME280;16219;42.864;23.360;2023-04-24T00:15:39;95612.66;;;8.72;100.00
29169;BME280;16219;42.864;23.360;2023-04-24T00:18:06;95620.72;;;8.76;100.00
29169;BME280;16219;42.864;23.360;2023-04-24T00:20:34;95608.88;;;8.65;100.00
29169;BME280;16219;42.864;23.360;2023-04-24T00:23:01;95606.03;;;8.52;100.00
29169;BME280;16219;42.864;23.360;2023-04-24T00:25:27;95606.81;;;8.53;100.00
29169;BME280;16219;42.864;23.360;2023-04-24T00:27:55;95601.41;;;8.36;100.00
29169;BME280;16219;42.864;23.360;2023-04-24T00:30:23;95606.31;;;8.42;100.00
29169;BME280;16219;42.864;23.360;2023-04-24T00:32:50;95608.63;;;8.44;100.00
29169;BME280;16219;42.864;23.360;2023-04-24T00:35:17;95596.38;;;8.39;100.00
29169;BME280;16219;42.864;23.360;2023-04-24T00:37:45;95598.53;;;8.37;100.00
29169;BME280;16219;42.864;23.360;2023-04-24T00:40:12;95603.66;;;8.20;100.00
29169;BME280;16219;42.864;23.360;2023-04-24T00:42:40;95589.44;;;8.21;100.00
29169;BME280;16219;42.864;23.360;2023-04-24T00:45:07;95591.56;;;8.19;100.00
29169;BME280;16219;42.864;23.360;2023-04-24T00:47:36;95593.38;;;8.10;100.00
29169;BME280;16219;42.864;23.360;2023-04-24T00:50:04;95597.00;;;8.22;100.00
29169;BME280;16219;42.864;23.360;2023-04-24T00:52:32;95592.19;;;8.16;100.00
29169;BME280;16219;42.864;23.360;2023-04-24T00:54:59;95589.31;;;8.04;100.00
29169;BME280;16219;42.864;23.360;2023-04-24T00:57:26;95589.91;;;8.00;100.00
29169;BME280;16219;42.864;23.360;2023-04-24T00:59:54;95592.41;;;8.06;100.00
29169;BME280;16219;42.864;23.360;2023-04-24T01:02:22;95586.25;;;7.88;100.00
29169;BME280;16219;42.864;23.360;2023-04-24T01:04:51;95586.63;;;7.95;100.00
29169;BME280;16219;42.864;23.360;2023-04-24T01:07:19;95594.97;;;7.97;100.00
29169;BME280;16219;42.864;23.360;2023-04-24T01:09:47;95593.63;;;7.99;100.00
29169;BME280;16219;42.864;23.360;2023-04-24T01:12:17;95594.03;;;7.93;100.00
29169;BME280;16219;42.864;23.360;2023-04-24T01:14:45;95584.66;;;7.78;100.00
29169;BME280;16219;42.864;23.360;2023-04-24T01:17:12;95590.00;;;7.73;100.00
29169;BME280;16219;42.864;23.360;2023-04-24T01:19:39;95590.22;;;7.63;100.00
29169;BME280;16219;42.864;23.360;2023-04-24T01:22:12;95583.97;;;7.72;100.00
29169;BME280;16219;42.864;23.360;2023-04-24T01:24:40;95588.44;;;7.72;100.00
29169;BME280;16219;42.864;23.360;2023-04-24T01:27:08;95587.28;;;7.78;100.00
29169;BME280;16219;42.864;23.360;2023-04-24T01:29:36;95573.19;;;7.60;100.00
29169;BME280;16219;42.864;23.360;2023-04-24T01:32:04;95600.59;;;7.68;100.00
29169;BME280;16219;42.864;23.360;2023-04-24T01:34:31;95588.69;;;7.62;100.00
29169;BME280;16219;42.864;23.360;2023-04-24T01:36:59;95591.38;;;7.70;100.00
29169;BME280;16219;42.864;23.360;2023-04-24T01:39:27;95592.03;;;7.76;100.00
29169;BME280;16219;42.864;23.360;2023-04-24T01:41:54;95582.59;;;7.75;100.00
29169;BME280;16219;42.864;23.360;2023-04-24T01:44:21;95579.69;;;7.76;100.00
29169;BME280;16219;42.864;23.360;2023-04-24T01:46:48;95572.94;;;7.62;100.00
29169;BME280;16219;42.864;23.360;2023-04-24T01:49:15;95578.13;;;7.75;100.00
29169;BME280;16219;42.864;23.360;2023-04-24T01:51:44;95581.06;;;7.74;100.00
29169;BME280;16219;42.864;23.360;2023-04-24T01:54:11;95580.38;;;7.68;100.00
29169;BME280;16219;42.864;23.360;2023-04-24T01:56:41;95569.41;;;7.66;100.00
29169;BME280;16219;42.864;23.360;2023-04-24T01:59:10;95573.13;;;7.65;100.00
29169;BME280;16219;42.864;23.360;2023-04-24T02:01:37;95568.84;;;7.56;100.00
29169;BME280;16219;42.864;23.360;2023-04-24T02:04:05;95569.66;;;7.42;100.00
29169;BME280;16219;42.864;23.360;2023-04-24T02:06:34;95567.72;;;7.48;100.00
29169;BME280;16219;42.864;23.360;2023-04-24T02:09:01;95562.47;;;7.48;100.00
29169;BME280;16219;42.864;23.360;2023-04-24T02:11:29;95559.91;;;7.57;100.00
29169;BME280;16219;42.864;23.360;2023-04-24T02:13:58;95563.25;;;7.48;100.00
29169;BME280;16219;42.864;23.360;2023-04-24T02:16:25;95548.09;;;7.32;100.00
29169;BME280;16219;42.864;23.360;2023-04-24T02:18:52;95561.09;;;7.50;100.00
29169;BME280;16219;42.864;23.360;2023-04-24T02:21:19;95560.50;;;7.54;100.00
29169;BME280;16219;42.864;23.360;2023-04-24T02:23:46;95563.44;;;7.38;100.00
29169;BME280;16219;42.864;23.360;2023-04-24T02:26:13;95551.78;;;7.44;100.00
29169;BME280;16219;42.864;23.360;2023-04-24T02:28:40;95552.75;;;7.48;100.00
29169;BME280;16219;42.864;23.360;2023-04-24T02:31:09;95557.59;;;7.41;100.00
29169;BME280;16219;42.864;23.360;2023-04-24T02:33:36;95554.91;;;7.33;100.00
29169;BME280;16219;42.864;23.360;2023-04-24T02:36:04;95555.69;;;7.33;100.00
29169;BME280;16219;42.864;23.360;2023-04-24T02:38:31;95549.56;;;7.24;100.00
29169;BME280;16219;42.864;23.360;2023-04-24T02:40:58;95551.63;;;7.27;100.00
29169;BME280;16219;42.864;23.360;2023-04-24T02:43:26;95541.88;;;7.41;100.00
29169;BME280;16219;42.864;23.360;2023-04-24T02:45:53;95550.22;;;7.30;100.00
29169;BME280;16219;42.864;23.360;2023-04-24T02:48:21;95543.94;;;7.17;100.00
29169;BME280;16219;42.864;23.360;2023-04-24T02:50:49;95546.94;;;7.24;100.00
29169;BME280;16219;42.864;23.360;2023-04-24T02:53:16;95541.13;;;7.27;100.00
29169;BME280;16219;42.864;23.360;2023-04-24T02:55:43;95550.16;;;7.21;100.00
29169;BME280;16219;42.864;23.360;2023-04-24T02:58:11;95548.91;;;7.18;100.00
29169;BME280;16219;42.864;23.360;2023-04-24T03:00:39;95551.53;;;7.18;100.00
29169;BME280;16219;42.864;23.360;2023-04-24T03:03:06;95545.63;;;6.99;100.00
29169;BME280;16219;42.864;23.360;2023-04-24T03:05:35;95547.34;;;7.04;100.00
29169;BME280;16219;42.864;23.360;2023-04-24T03:08:02;95544.06;;;7.12;100.00
29169;BME280;16219;42.864;23.360;2023-04-24T03:10:29;95557.94;;;7.12;100.00
29169;BME280;16219;42.864;23.360;2023-04-24T03:12:56;95544.16;;;7.07;100.00
29169;BME280;16219;42.864;23.360;2023-04-24T03:15:23;95544.28;;;7.01;100.00
29169;BME280;16219;42.864;23.360;2023-04-24T03:17:49;95542.59;;;6.92;100.00
29169;BME280;16219;42.864;23.360;2023-04-24T03:20:17;95562.13;;;6.99;100.00
29169;BME280;16219;42.864;23.360;2023-04-24T03:22:45;95555.72;;;6.92;100.00
29169;BME280;16219;42.864;23.360;2023-04-24T03:25:12;95555.53;;;7.02;100.00
29169;BME280;16219;42.864;23.360;2023-04-24T03:27:39;95556.88;;;6.99;100.00
29169;BME280;16219;42.864;23.360;2023-04-24T03:30:17;95560.97;;;7.06;100.00
29169;BME280;16219;42.864;23.360;2023-04-24T03:32:50;95561.56;;;7.03;100.00
29169;BME280;16219;42.864;23.360;2023-04-24T03:35:22;95564.06;;;7.08;100.00
29169;BME280;16219;42.864;23.360;2023-04-24T03:37:52;95561.25;;;7.04;100.00
29169;BME280;16219;42.864;23.360;2023-04-24T03:40:39;95564.75;;;6.99;100.00
29169;BME280;16219;42.864;23.360;2023-04-24T03:43:20;95560.00;;;7.01;100.00
29169;BME280;16219;42.864;23.360;2023-04-24T03:45:47;95561.16;;;7.23;100.00
29169;BME280;16219;42.864;23.360;2023-04-24T03:48:16;95563.34;;;7.30;100.00
29169;BME280;16219;42.864;23.360;2023-04-24T03:50:43;95562.09;;;7.13;100.00
29169;BME280;16219;42.864;23.360;2023-04-24T03:53:13;95559.22;;;7.15;100.00
29169;BME280;16219;42.864;23.360;2023-04-24T03:55:41;95555.91;;;7.23;100.00
29169;BME280;16219;42.864;23.360;2023-04-24T03:58:09;95555.09;;;7.36;100.00
29169;BME280;16219;42.864;23.360;2023-04-24T04:00:37;95563.25;;;7.48;100.00
29169;BME280;16219;42.864;23.360;2023-04-24T04:03:24;95563.72;;;7.50;100.00
29169;BME280;16219;42.864;23.360;2023-04-24T04:05:52;95575.09;;;7.46;100.00
29169;BME280;16219;42.864;23.360;2023-04-24T04:08:21;95568.50;;;7.48;100.00
29169;BME280;16219;42.864;23.360;2023-04-24T04:10:49;95576.78;;;7.78;100.00
29169;BME280;16219;42.864;23.360;2023-04-24T04:13:16;95581.38;;;7.95;100.00
29169;BME280;16219;42.864;23.360;2023-04-24T04:15:43;95577.72;;;8.05;100.00
29169;BME280;16219;42.864;23.360;2023-04-24T04:18:12;95575.16;;;8.13;100.00
29169;BME280;16219;42.864;23.360;2023-04-24T04:20:39;95572.34;;;8.10;100.00
29169;BME280;16219;42.864;23.360;2023-04-24T04:23:06;95573.53;;;8.26;100.00
29169;BME280;16219;42.864;23.360;2023-04-24T04:25:45;95583.88;;;8.22;100.00
29169;BME280;16219;42.864;23.360;2023-04-24T04:28:13;95586.81;;;8.43;100.00
29169;BME280;16219;42.864;23.360;2023-04-24T04:30:41;95582.59;;;8.65;100.00
29169;BME280;16219;42.864;23.360;2023-04-24T04:33:09;95582.59;;;8.65;100.00
29169;BME280;16219;42.864;23.360;2023-04-24T04:35:37;95586.47;;;8.67;100.00
29169;BME280;16219;42.864;23.360;2023-04-24T04:38:04;95593.59;;;8.67;100.00
29169;BME280;16219;42.864;23.360;2023-04-24T04:40:43;95593.72;;;8.62;100.00
29169;BME280;16219;42.864;23.360;2023-04-24T04:43:13;95582.78;;;8.68;100.00
29169;BME280;16219;42.864;23.360;2023-04-24T04:45:47;95592.59;;;8.85;100.00
29169;BME280;16219;42.864;23.360;2023-04-24T04:48:24;95589.22;;;8.93;100.00
29169;BME280;16219;42.864;23.360;2023-04-24T04:50:51;95593.69;;;8.84;100.00
29169;BME280;16219;42.864;23.360;2023-04-24T04:53:20;95587.34;;;8.85;100.00
29169;BME280;16219;42.864;23.360;2023-04-24T04:55:47;95596.97;;;8.98;100.00
29169;BME280;16219;42.864;23.360;2023-04-24T04:58:17;95590.97;;;9.07;100.00
29169;BME280;16219;42.864;23.360;2023-04-24T05:00:45;95598.25;;;9.10;100.00
29169;BME280;16219;42.864;23.360;2023-04-24T05:03:23;95600.16;;;9.18;100.00
29169;BME280;16219;42.864;23.360;2023-04-24T05:05:58;95600.78;;;9.32;100.00
29169;BME280;16219;42.864;23.360;2023-04-24T05:08:27;95594.75;;;9.32;100.00
29169;BME280;16219;42.864;23.360;2023-04-24T05:10:55;95597.25;;;9.45;100.00
29169;BME280;16219;42.864;23.360;2023-04-24T05:13:24;95598.69;;;9.51;100.00
29169;BME280;16219;42.864;23.360;2023-04-24T05:15:51;95595.88;;;9.57;100.00
29169;BME280;16219;42.864;23.360;2023-04-24T05:18:19;95598.22;;;9.67;100.00
29169;BME280;16219;42.864;23.360;2023-04-24T05:20:47;95599.31;;;9.66;100.00
29169;BME280;16219;42.864;23.360;2023-04-24T05:23:14;95591.56;;;9.61;100.00
29169;BME280;16219;42.864;23.360;2023-04-24T05:25:43;95591.56;;;9.61;100.00
29169;BME280;16219;42.864;23.360;2023-04-24T05:28:12;95592.03;;;9.80;100.00
29169;BME280;16219;42.864;23.360;2023-04-24T05:30:40;95586.91;;;9.92;100.00
29169;BME280;16219;42.864;23.360;2023-04-24T05:33:08;95593.13;;;9.96;100.00
29169;BME280;16219;42.864;23.360;2023-04-24T05:35:35;95584.91;;;10.15;100.00
29169;BME280;16219;42.864;23.360;2023-04-24T05:38:02;95589.25;;;10.20;100.00
29169;BME280;16219;42.864;23.360;2023-04-24T05:40:29;95590.03;;;10.29;100.00
29169;BME280;16219;42.864;23.360;2023-04-24T05:42:56;95594.66;;;10.41;100.00
29169;BME280;16219;42.864;23.360;2023-04-24T05:45:24;95601.75;;;10.49;100.00
29169;BME280;16219;42.864;23.360;2023-04-24T05:47:52;95597.72;;;10.51;100.00
29169;BME280;16219;42.864;23.360;2023-04-24T05:50:19;95593.53;;;10.59;100.00
29169;BME280;16219;42.864;23.360;2023-04-24T05:52:46;95602.78;;;10.74;100.00
29169;BME280;16219;42.864;23.360;2023-04-24T05:55:23;95600.44;;;10.81;100.00
29169;BME280;16219;42.864;23.360;2023-04-24T05:57:52;95596.84;;;10.86;100.00
29169;BME280;16219;42.864;23.360;2023-04-24T06:00:19;95586.91;;;10.91;100.00
29169;BME280;16219;42.864;23.360;2023-04-24T06:03:00;95594.91;;;11.04;100.00
29169;BME280;16219;42.864;23.360;2023-04-24T06:05:29;95592.56;;;11.11;100.00
29169;BME280;16219;42.864;23.360;2023-04-24T06:07:57;95588.75;;;11.29;100.00
29169;BME280;16219;42.864;23.360;2023-04-24T06:10:28;95590.22;;;11.47;100.00
29169;BME280;16219;42.864;23.360;2023-04-24T06:12:57;95584.28;;;11.71;100.00
29169;BME280;16219;42.864;23.360;2023-04-24T06:15:28;95588.44;;;11.81;100.00
29169;BME280;16219;42.864;23.360;2023-04-24T06:18:00;95590.78;;;12.04;100.00
29169;BME280;16219;42.864;23.360;2023-04-24T06:20:28;95592.78;;;12.19;100.00
29169;BME280;16219;42.864;23.360;2023-04-24T06:22:55;95585.84;;;12.47;100.00
29169;BME280;16219;42.864;23.360;2023-04-24T06:25:24;95597.25;;;12.60;100.00
29169;BME280;16219;42.864;23.360;2023-04-24T06:27:51;95589.00;;;12.62;100.00
29169;BME280;16219;42.864;23.360;2023-04-24T06:30:19;95594.88;;;12.80;100.00
29169;BME280;16219;42.864;23.360;2023-04-24T06:32:46;95593.44;;;13.07;100.00
29169;BME280;16219;42.864;23.360;2023-04-24T06:35:16;95582.31;;;13.38;100.00
29169;BME280;16219;42.864;23.360;2023-04-24T06:37:44;95580.19;;;13.68;100.00
29169;BME280;16219;42.864;23.360;2023-04-24T06:40:11;95581.53;;;13.62;100.00
29169;BME280;16219;42.864;23.360;2023-04-24T06:42:38;95578.31;;;13.68;100.00
29169;BME280;16219;42.864;23.360;2023-04-24T06:45:08;95580.19;;;13.68;100.00
29169;BME280;16219;42.864;23.360;2023-04-24T06:47:35;95581.06;;;13.72;100.00
29169;BME280;16219;42.864;23.360;2023-04-24T06:50:04;95575.81;;;13.88;100.00
29169;BME280;16219;42.864;23.360;2023-04-24T06:52:32;95581.06;;;14.12;100.00
29169;BME280;16219;42.864;23.360;2023-04-24T06:55:03;95578.56;;;14.04;100.00
29169;BME280;16219;42.864;23.360;2023-04-24T06:57:30;95569.34;;;13.85;100.00
29169;BME280;16219;42.864;23.360;2023-04-24T06:59:57;95573.34;;;13.67;100.00
29169;BME280;16219;42.864;23.360;2023-04-24T07:02:25;95572.25;;;13.68;100.00
29169;BME280;16219;42.864;23.360;2023-04-24T07:04:52;95576.69;;;13.64;100.00
29169;BME280;16219;42.864;23.360;2023-04-24T07:07:19;95578.22;;;13.65;100.00
29169;BME280;16219;42.864;23.360;2023-04-24T07:09:48;95573.97;;;13.76;100.00
29169;BME280;16219;42.864;23.360;2023-04-24T07:12:16;95569.78;;;14.15;100.00
29169;BME280;16219;42.864;23.360;2023-04-24T07:14:46;95559.19;;;14.31;100.00
29169;BME280;16219;42.864;23.360;2023-04-24T07:17:13;95561.50;;;14.61;100.00
29169;BME280;16219;42.864;23.360;2023-04-24T07:19:40;95564.44;;;14.87;100.00
29169;BME280;16219;42.864;23.360;2023-04-24T07:22:07;95558.34;;;15.18;100.00
29169;BME280;16219;42.864;23.360;2023-04-24T07:24:37;95556.44;;;15.54;96.11
29169;BME280;16219;42.864;23.360;2023-04-24T07:27:05;95551.97;;;15.74;93.09
29169;BME280;16219;42.864;23.360;2023-04-24T07:29:32;95554.06;;;15.84;96.37
29169;BME280;16219;42.864;23.360;2023-04-24T07:32:00;95556.75;;;16.04;92.58
29169;BME280;16219;42.864;23.360;2023-04-24T07:34:27;95548.91;;;16.11;79.91
29169;BME280;16219;42.864;23.360;2023-04-24T07:36:54;95553.63;;;16.40;79.25
29169;BME280;16219;42.864;23.360;2023-04-24T07:39:21;95548.56;;;16.74;76.11
29169;BME280;16219;42.864;23.360;2023-04-24T07:41:48;95550.09;;;16.75;80.62
29169;BME280;16219;42.864;23.360;2023-04-24T07:44:17;95543.56;;;16.95;84.10
29169;BME280;16219;42.864;23.360;2023-04-24T07:46:44;95541.81;;;17.07;68.06
29169;BME280;16219;42.864;23.360;2023-04-24T07:49:11;95531.66;;;17.12;72.84
29169;BME280;16219;42.864;23.360;2023-04-24T07:51:39;95534.75;;;17.18;68.26
29169;BME280;16219;42.864;23.360;2023-04-24T07:54:06;95535.97;;;17.24;72.16
29169;BME280;16219;42.864;23.360;2023-04-24T07:56:33;95523.72;;;17.19;66.28
29169;BME280;16219;42.864;23.360;2023-04-24T07:59:04;95537.69;;;17.36;64.46
29169;BME280;16219;42.864;23.360;2023-04-24T08:01:33;95532.59;;;17.27;69.40
29169;BME280;16219;42.864;23.360;2023-04-24T08:04:00;95523.97;;;17.37;69.79
29169;BME280;16219;42.864;23.360;2023-04-24T08:06:27;95509.16;;;17.40;76.28
29169;BME280;16219;42.864;23.360;2023-04-24T08:08:57;95515.66;;;17.69;86.18
29169;BME280;16219;42.864;23.360;2023-04-24T08:11:26;95510.59;;;17.90;81.30
29169;BME280;16219;42.864;23.360;2023-04-24T08:13:53;95508.31;;;17.92;80.44
29169;BME280;16219;42.864;23.360;2023-04-24T08:16:20;95507.53;;;17.88;72.02
29169;BME280;16219;42.864;23.360;2023-04-24T08:18:48;95507.59;;;17.95;67.78
29169;BME280;16219;42.864;23.360;2023-04-24T08:21:15;95504.13;;;17.91;76.39
29169;BME280;16219;42.864;23.360;2023-04-24T08:23:44;95506.53;;;18.04;66.19
29169;BME280;16219;42.864;23.360;2023-04-24T08:26:12;95494.94;;;18.26;77.61
29169;BME280;16219;42.864;23.360;2023-04-24T08:28:39;95498.00;;;18.24;65.84
29169;BME280;16219;42.864;23.360;2023-04-24T08:31:06;95493.63;;;18.46;72.59
29169;BME280;16219;42.864;23.360;2023-04-24T08:33:33;95499.84;;;18.58;75.57
29169;BME280;16219;42.864;23.360;2023-04-24T08:36:04;95499.31;;;18.82;68.05
29169;BME280;16219;42.864;23.360;2023-04-24T08:38:32;95491.69;;;18.84;72.41
29169;BME280;16219;42.864;23.360;2023-04-24T08:41:00;95480.00;;;19.03;69.41
29169;BME280;16219;42.864;23.360;2023-04-24T08:43:28;95479.69;;;19.19;64.05
29169;BME280;16219;42.864;23.360;2023-04-24T08:45:56;95457.34;;;18.86;68.55
29169;BME280;16219;42.864;23.360;2023-04-24T08:48:25;95478.88;;;19.11;64.61
29169;BME280;16219;42.864;23.360;2023-04-24T08:50:52;95469.31;;;19.07;69.32
29169;BME280;16219;42.864;23.360;2023-04-24T08:53:21;95467.53;;;19.25;63.92
29169;BME280;16219;42.864;23.360;2023-04-24T08:55:49;95460.31;;;19.33;65.72
29169;BME280;16219;42.864;23.360;2023-04-24T08:58:17;95458.53;;;18.92;60.17
29169;BME280;16219;42.864;23.360;2023-04-24T09:00:44;95464.75;;;19.11;69.72
29169;BME280;16219;42.864;23.360;2023-04-24T09:03:13;95444.53;;;19.17;63.69
29169;BME280;16219;42.864;23.360;2023-04-24T09:05:42;95453.72;;;19.19;57.19
29169;BME280;16219;42.864;23.360;2023-04-24T09:08:13;95447.09;;;18.95;59.62
29169;BME280;16219;42.864;23.360;2023-04-24T09:10:42;95442.78;;;18.80;63.00
29169;BME280;16219;42.864;23.360;2023-04-24T09:13:09;95435.91;;;18.79;66.39
29169;BME280;16219;42.864;23.360;2023-04-24T09:15:38;95435.84;;;18.72;71.28
29169;BME280;16219;42.864;23.360;2023-04-24T09:18:06;95433.97;;;18.76;68.43
29169;BME280;16219;42.864;23.360;2023-04-24T09:20:33;95431.47;;;19.01;66.37
29169;BME280;16219;42.864;23.360;2023-04-24T09:23:01;95423.25;;;19.38;70.29
29169;BME280;16219;42.864;23.360;2023-04-24T09:25:31;95420.25;;;19.58;65.60
29169;BME280;16219;42.864;23.360;2023-04-24T09:28:02;95422.69;;;19.84;64.49
29169;BME280;16219;42.864;23.360;2023-04-24T09:30:29;95407.38;;;19.78;60.04
29169;BME280;16219;42.864;23.360;2023-04-24T09:33:10;95411.97;;;19.91;59.20
29169;BME280;16219;42.864;23.360;2023-04-24T09:35:41;95415.47;;;20.03;63.85
29169;BME280;16219;42.864;23.360;2023-04-24T09:38:09;95414.31;;;20.04;58.88
29169;BME280;16219;42.864;23.360;2023-04-24T09:40:36;95418.94;;;20.35;61.73
29169;BME280;16219;42.864;23.360;2023-04-24T09:43:10;95421.63;;;20.46;56.83
29169;BME280;16219;42.864;23.360;2023-04-24T09:45:38;95425.03;;;20.14;59.04
29169;BME280;16219;42.864;23.360;2023-04-24T09:48:09;95418.16;;;20.20;57.47
29169;BME280;16219;42.864;23.360;2023-04-24T09:50:36;95409.75;;;20.29;55.15
29169;BME280;16219;42.864;23.360;2023-04-24T09:53:05;95405.16;;;20.40;56.62
29169;BME280;16219;42.864;23.360;2023-04-24T09:55:39;95412.84;;;20.56;59.63
29169;BME280;16219;42.864;23.360;2023-04-24T09:58:08;95409.38;;;20.38;56.51
29169;BME280;16219;42.864;23.360;2023-04-24T10:00:36;95395.22;;;20.55;55.99
29169;BME280;16219;42.864;23.360;2023-04-24T10:03:04;95401.38;;;20.52;57.17
29169;BME280;16219;42.864;23.360;2023-04-24T10:05:33;95396.00;;;20.59;58.94
29169;BME280;16219;42.864;23.360;2023-04-24T10:08:02;95382.97;;;20.65;52.52
29169;BME280;16219;42.864;23.360;2023-04-24T10:10:31;95380.66;;;20.60;54.60
29169;BME280;16219;42.864;23.360;2023-04-24T10:12:59;95370.72;;;20.50;56.80
29169;BME280;16219;42.864;23.360;2023-04-24T10:15:27;95370.34;;;20.47;58.91
29169;BME280;16219;42.864;23.360;2023-04-24T10:17:57;95381.44;;;20.75;59.51
29169;BME280;16219;42.864;23.360;2023-04-24T10:20:27;95367.16;;;21.06;65.00
29169;BME280;16219;42.864;23.360;2023-04-24T10:22:57;95365.25;;;21.14;55.83
29169;BME280;16219;42.864;23.360;2023-04-24T10:25:27;95341.44;;;21.19;55.19
29169;BME280;16219;42.864;23.360;2023-04-24T10:28:01;95349.13;;;21.25;60.79
29169;BME280;16219;42.864;23.360;2023-04-24T10:30:43;95349.09;;;21.28;52.45
29169;BME280;16219;42.864;23.360;2023-04-24T10:33:28;95351.00;;;21.28;58.61
29169;BME280;16219;42.864;23.360;2023-04-24T10:36:01;95353.19;;;21.58;60.20
29169;BME280;16219;42.864;23.360;2023-04-24T10:38:29;95342.38;;;21.76;51.65
29169;BME280;16219;42.864;23.360;2023-04-24T10:40:57;95342.84;;;21.60;50.87
29169;BME280;16219;42.864;23.360;2023-04-24T10:43:33;95340.16;;;21.60;55.98
29169;BME280;16219;42.864;23.360;2023-04-24T10:46:04;95332.84;;;21.64;55.11
29169;BME280;16219;42.864;23.360;2023-04-24T10:48:33;95338.25;;;21.53;55.92
29169;BME280;16219;42.864;23.360;2023-04-24T10:51:01;95344.75;;;21.63;56.98
29169;BME280;16219;42.864;23.360;2023-04-24T10:53:30;95337.00;;;21.72;50.03
29169;BME280;16219;42.864;23.360;2023-04-24T10:55:59;95325.84;;;21.77;52.07
29169;BME280;16219;42.864;23.360;2023-04-24T10:58:36;95327.34;;;21.82;51.13
29169;BME280;16219;42.864;23.360;2023-04-24T11:01:07;95315.78;;;21.92;50.55
29169;BME280;16219;42.864;23.360;2023-04-24T11:03:35;95320.72;;;22.01;49.09
29169;BME280;16219;42.864;23.360;2023-04-24T11:06:04;95295.09;;;21.89;52.14
29169;BME280;16219;42.864;23.360;2023-04-24T11:08:37;95311.41;;;22.12;50.53
29169;BME280;16219;42.864;23.360;2023-04-24T11:11:09;95294.22;;;21.99;47.78
29169;BME280;16219;42.864;23.360;2023-04-24T11:14:05;95301.66;;;21.81;48.76
29169;BME280;16219;42.864;23.360;2023-04-24T11:16:41;95302.38;;;21.15;47.63
29169;BME280;16219;42.864;23.360;2023-04-24T11:19:18;95290.94;;;21.07;48.93
29169;BME280;16219;42.864;23.360;2023-04-24T11:21:47;95301.59;;;21.25;52.10
29169;BME280;16219;42.864;23.360;2023-04-24T11:24:39;95295.47;;;21.21;48.57
29169;BME280;16219;42.864;23.360;2023-04-24T11:27:16;95292.81;;;21.10;50.05
29169;BME280;16219;42.864;23.360;2023-04-24T11:29:47;95289.53;;;20.74;52.26
29169;BME280;16219;42.864;23.360;2023-04-24T11:32:33;95281.44;;;20.81;51.52
29169;BME280;16219;42.864;23.360;2023-04-24T11:35:02;95288.69;;;20.99;51.82
29169;BME280;16219;42.864;23.360;2023-04-24T11:37:35;95286.94;;;21.40;56.32
29169;BME280;16219;42.864;23.360;2023-04-24T11:40:04;95281.34;;;21.80;51.05
29169;BME280;16219;42.864;23.360;2023-04-24T11:42:35;95281.19;;;22.01;50.25
29169;BME280;16219;42.864;23.360;2023-04-24T11:45:07;95268.06;;;22.14;49.24
29169;BME280;16219;42.864;23.360;2023-04-24T11:47:37;95299.59;;;22.03;48.97
29169;BME280;16219;42.864;23.360;2023-04-24T11:50:06;95292.16;;;21.65;52.29
29169;BME280;16219;42.864;23.360;2023-04-24T11:52:37;95276.88;;;21.62;53.01
29169;BME280;16219;42.864;23.360;2023-04-24T11:55:07;95292.72;;;21.98;56.04
29169;BME280;16219;42.864;23.360;2023-04-24T11:57:35;95286.19;;;21.99;56.09
29169;BME280;16219;42.864;23.360;2023-04-24T12:00:04;95279.16;;;22.16;50.98
29169;BME280;16219;42.864;23.360;2023-04-24T12:02:39;95277.00;;;22.41;47.78
29169;BME280;16219;42.864;23.360;2023-04-24T12:05:07;95280.69;;;22.58;48.46
29169;BME280;16219;42.864;23.360;2023-04-24T12:07:40;95269.50;;;22.60;47.02
29169;BME280;16219;42.864;23.360;2023-04-24T12:10:09;95275.00;;;22.49;53.60
29169;BME280;16219;42.864;23.360;2023-04-24T12:12:36;95274.31;;;22.41;53.61
29169;BME280;16219;42.864;23.360;2023-04-24T12:15:07;95268.78;;;22.18;48.34
29169;BME280;16219;42.864;23.360;2023-04-24T12:17:35;95270.56;;;21.83;50.54
29169;BME280;16219;42.864;23.360;2023-04-24T12:20:06;95264.41;;;21.86;50.74
29169;BME280;16219;42.864;23.360;2023-04-24T12:22:44;95253.50;;;21.56;51.65
29169;BME280;16219;42.864;23.360;2023-04-24T12:25:12;95265.97;;;21.21;50.88
29169;BME280;16219;42.864;23.360;2023-04-24T12:27:40;95257.28;;;20.88;50.69
29169;BME280;16219;42.864;23.360;2023-04-24T12:30:11;95268.09;;;20.67;54.17
29169;BME280;16219;42.864;23.360;2023-04-24T12:32:41;95262.81;;;20.35;58.30
29169;BME280;16219;42.864;23.360;2023-04-24T12:35:11;95243.69;;;20.22;64.68
29169;BME280;16219;42.864;23.360;2023-04-24T12:37:38;95241.78;;;20.22;57.79
29169;BME280;16219;42.864;23.360;2023-04-24T12:40:09;95235.25;;;20.23;57.15
29169;BME280;16219;42.864;23.360;2023-04-24T12:42:42;95226.44;;;20.48;56.84
29169;BME280;16219;42.864;23.360;2023-04-24T12:45:10;95204.19;;;20.58;56.26
29169;BME280;16219;42.864;23.360;2023-04-24T12:47:39;95209.44;;;20.87;56.10
29169;BME280;16219;42.864;23.360;2023-04-24T12:50:08;95195.16;;;21.04;54.28
29169;BME280;16219;42.864;23.360;2023-04-24T12:52:37;95201.19;;;21.22;53.66
29169;BME280;16219;42.864;23.360;2023-04-24T12:55:05;95195.38;;;21.35;52.19
29169;BME280;16219;42.864;23.360;2023-04-24T12:57:34;95195.22;;;21.56;53.49